Time;durP1;ratioP1;P1;durP2;ratioP2;P2;SDS_P1;SDS_P2;PMS_P1;PMS_P2;Temp;Humidity;BMP_temperature;BMP_pressure;BME280_temperature;BME280_humidity;BME280_pressure;Samples;Min_cycle;Max_cycle;Signal;HPM_P1;HPM_P2
2024/03/17 00:00:43;;;;;;;2.17;1.60;;;7.20;99.90;;;;;;5015982;28;20022;-74
2024/03/17 00:03:09;;;;;;;1.85;1.02;;;7.20;99.90;;;;;;5034433;28;20549;-74
2024/03/17 00:05:37;;;;;;;5.47;1.50;;;7.20;99.90;;;;;;5035074;28;20029;-73
2024/03/17 00:08:08;;;;;;;2.00;1.65;;;7.20;99.90;;;;;;5017219;28;20029;-74
2024/03/17 00:10:34;;;;;;;2.03;1.75;;;7.10;99.90;;;;;;5034980;28;20017;-74
2024/03/17 00:13:03;;;;;;;3.00;1.77;;;7.10;99.90;;;;;;5034349;28;20447;-74
2024/03/17 00:15:30;;;;;;;2.10;1.63;;;7.10;99.90;;;;;;5034888;28;20018;-73
2024/03/17 00:17:55;;;;;;;4.35;1.58;;;7.20;99.90;;;;;;5016055;28;20021;-74
2024/03/17 00:20:21;;;;;;;4.25;1.73;;;7.10;99.90;;;;;;5034781;28;20100;-74
2024/03/17 00:22:48;;;;;;;3.78;1.60;;;7.10;99.90;;;;;;5034128;28;20459;-73
2024/03/17 00:25:14;;;;;;;2.17;1.95;;;7.20;99.90;;;;;;5016871;28;20112;-74
2024/03/17 00:27:42;;;;;;;3.47;2.03;;;7.20;99.90;;;;;;5034625;28;20108;-74
2024/03/17 00:30:12;;;;;;;4.60;2.17;;;7.10;99.90;;;;;;5034684;28;20022;-74
2024/03/17 00:32:40;;;;;;;3.63;2.00;;;7.10;99.90;;;;;;5016177;28;20021;-74
2024/03/17 00:35:13;;;;;;;2.33;1.52;;;7.20;99.90;;;;;;5016905;28;20022;-74
2024/03/17 00:37:39;;;;;;;4.93;2.10;;;7.20;99.90;;;;;;5016805;28;20487;-74
2024/03/17 00:40:06;;;;;;;2.63;1.60;;;7.10;99.90;;;;;;5014870;28;20155;-73
2024/03/17 00:42:32;;;;;;;3.38;2.00;;;7.10;99.90;;;;;;5033773;28;20479;-75
2024/03/17 00:44:59;;;;;;;1.80;1.60;;;7.10;99.90;;;;;;5034377;28;20033;-74
2024/03/17 00:47:25;;;;;;;4.40;1.85;;;7.00;99.90;;;;;;5034362;28;20475;-73
2024/03/17 00:49:51;;;;;;;2.15;1.63;;;7.00;99.90;;;;;;5034249;28;20041;-73
2024/03/17 00:52:17;;;;;;;6.15;2.08;;;7.00;99.90;;;;;;5033780;28;20037;-73
2024/03/17 00:54:43;;;;;;;2.60;1.75;;;6.90;99.90;;;;;;5016283;28;20122;-74
2024/03/17 00:57:09;;;;;;;3.75;1.40;;;6.90;99.90;;;;;;5034151;28;20521;-74
2024/03/17 00:59:34;;;;;;;2.45;1.30;;;6.90;99.90;;;;;;5034046;28;20030;-74
2024/03/17 01:02:00;;;;;;;2.58;1.45;;;6.90;99.90;;;;;;5015812;28;20068;-73
2024/03/17 01:04:26;;;;;;;2.15;1.25;;;6.80;99.90;;;;;;5033866;28;20056;-74
2024/03/17 01:06:51;;;;;;;3.40;1.75;;;6.80;99.90;;;;;;5016214;28;20537;-72
2024/03/17 01:09:17;;;;;;;1.92;1.30;;;6.80;99.90;;;;;;5033659;28;20506;-74
2024/03/17 01:11:43;;;;;;;2.33;1.60;;;6.70;99.90;;;;;;5032806;28;20028;-74
2024/03/17 01:14:09;;;;;;;1.80;1.30;;;6.70;99.90;;;;;;5033898;28;20018;-74
2024/03/17 01:16:34;;;;;;;1.92;1.70;;;6.70;99.90;;;;;;5033837;28;20083;-74
2024/03/17 01:19:00;;;;;;;1.85;1.30;;;6.60;99.90;;;;;;5015880;28;20037;-74
2024/03/17 01:21:26;;;;;;;1.63;1.25;;;6.60;99.90;;;;;;5033754;28;20033;-73
2024/03/17 01:23:52;;;;;;;2.45;1.02;;;6.60;99.90;;;;;;5032907;28;20021;-74
2024/03/17 01:26:18;;;;;;;1.35;1.17;;;6.50;99.90;;;;;;5015848;28;20025;-73
2024/03/17 01:28:44;;;;;;;1.88;1.15;;;6.50;99.90;;;;;;5033652;28;20036;-74
2024/03/17 01:31:09;;;;;;;1.08;0.90;;;6.50;99.90;;;;;;5015848;28;20025;-74
2024/03/17 01:33:35;;;;;;;1.48;1.05;;;6.40;99.90;;;;;;5015189;28;20054;-74
2024/03/17 01:36:01;;;;;;;2.35;1.40;;;6.40;99.90;;;;;;5033557;28;20052;-74
2024/03/17 01:38:26;;;;;;;1.15;1.05;;;6.40;99.90;;;;;;5033386;28;20036;-74
2024/03/17 01:40:52;;;;;;;1.80;0.82;;;6.40;99.90;;;;;;5033375;28;20021;-74
2024/03/17 01:43:18;;;;;;;1.33;1.23;;;6.50;99.90;;;;;;5032815;28;20029;-74
2024/03/17 01:45:43;;;;;;;2.13;1.27;;;6.50;99.90;;;;;;5015465;28;20041;-73
2024/03/17 01:48:15;;;;;;;3.58;1.55;;;6.40;99.90;;;;;;5015232;28;20021;-74
2024/03/17 01:50:41;;;;;;;1.08;0.98;;;6.40;99.90;;;;;;5033225;28;20033;-74
2024/03/17 01:53:09;;;;;;;4.15;1.35;;;6.30;99.90;;;;;;5014584;28;20022;-74
2024/03/17 01:55:40;;;;;;;2.15;1.48;;;6.30;99.90;;;;;;5033099;28;20075;-74
2024/03/17 01:58:07;;;;;;;2.13;1.08;;;6.20;99.90;;;;;;5033084;28;20017;-73
2024/03/17 02:00:36;;;;;;;4.45;1.13;;;6.10;99.90;;;;;;5015081;28;20192;-74
2024/03/17 02:03:08;;;;;;;1.85;1.00;;;6.10;99.90;;;;;;5032315;28;20056;-74
2024/03/17 02:05:35;;;;;;;1.20;1.00;;;6.10;99.90;;;;;;5032870;28;20099;-73
2024/03/17 02:08:01;;;;;;;0.88;0.80;;;6.10;99.90;;;;;;5015283;28;20025;-73
2024/03/17 02:10:27;;;;;;;0.80;0.80;;;6.00;99.90;;;;;;5014986;28;20029;-73
2024/03/17 02:12:53;;;;;;;1.85;1.42;;;6.00;99.90;;;;;;5032259;28;20047;-73
2024/03/17 02:15:19;;;;;;;2.63;1.60;;;5.90;99.90;;;;;;5032787;28;20032;-73
2024/03/17 02:17:45;;;;;;;1.13;1.05;;;5.80;99.90;;;;;;5032779;28;20030;-73
2024/03/17 02:20:11;;;;;;;1.10;0.85;;;5.90;99.90;;;;;;5032455;28;20108;-73
2024/03/17 02:22:37;;;;;;;0.80;0.80;;;5.90;99.90;;;;;;5031116;28;20154;-73
2024/03/17 02:25:03;;;;;;;0.98;0.90;;;5.80;99.90;;;;;;5014944;28;20022;-74
2024/03/17 02:27:29;;;;;;;1.45;0.80;;;5.80;99.90;;;;;;5032707;28;20025;-74
2024/03/17 02:29:55;;;;;;;0.90;0.90;;;5.80;99.90;;;;;;5032474;28;20022;-74
2024/03/17 02:32:22;;;;;;;1.25;0.63;;;5.80;99.90;;;;;;5014113;28;20108;-72
2024/03/17 02:34:48;;;;;;;1.13;0.85;;;5.80;99.90;;;;;;5032589;28;20451;-73
2024/03/17 02:37:14;;;;;;;0.70;0.70;;;5.80;99.90;;;;;;5032305;28;20021;-73
2024/03/17 02:39:40;;;;;;;1.65;1.00;;;5.70;99.90;;;;;;5032164;28;20029;-73
2024/03/17 02:42:08;;;;;;;0.85;0.85;;;5.70;99.90;;;;;;5031790;28;20423;-73
2024/03/17 02:44:35;;;;;;;1.38;1.10;;;5.60;99.90;;;;;;5032255;28;20013;-73
2024/03/17 02:47:02;;;;;;;1.50;1.00;;;5.60;99.90;;;;;;5032034;28;20395;-73
2024/03/17 02:49:35;;;;;;;0.70;0.70;;;5.60;99.90;;;;;;5032112;28;20029;-73
2024/03/17 02:52:01;;;;;;;3.10;1.27;;;5.60;99.90;;;;;;5031602;28;20368;-74
2024/03/17 02:54:27;;;;;;;1.73;0.88;;;5.50;99.90;;;;;;5032126;28;20049;-73
2024/03/17 02:56:52;;;;;;;4.18;1.23;;;5.50;99.90;;;;;;5031966;28;20487;-73
2024/03/17 02:59:18;;;;;;;1.52;0.75;;;5.50;99.90;;;;;;5025595;28;20064;-73
2024/03/17 03:01:44;;;;;;;2.60;0.77;;;5.50;99.90;;;;;;5022976;28;20105;-73
2024/03/17 03:04:10;;;;;;;0.63;0.63;;;5.50;99.90;;;;;;5031816;28;20442;-73
2024/03/17 03:06:36;;;;;;;1.70;0.73;;;5.60;99.90;;;;;;5031698;28;20132;-73
2024/03/17 03:09:04;;;;;;;5.10;1.38;;;5.50;99.90;;;;;;5011724;28;20056;-73
2024/03/17 03:11:30;;;;;;;1.02;0.90;;;5.50;99.90;;;;;;5000386;28;20056;-73
2024/03/17 03:13:56;;;;;;;1.00;0.68;;;5.50;99.90;;;;;;5011789;28;20110;-73
2024/03/17 03:16:22;;;;;;;0.52;0.50;;;5.50;99.90;;;;;;5011800;28;20104;-73
2024/03/17 03:18:47;;;;;;;0.20;0.20;;;5.50;99.90;;;;;;5012007;28;20085;-73
2024/03/17 03:21:13;;;;;;;0.32;0.20;;;5.50;99.90;;;;;;5011881;28;20164;-74
2024/03/17 03:23:39;;;;;;;0.13;0.13;;;5.50;99.90;;;;;;5011230;28;20030;-73
2024/03/17 03:26:04;;;;;;;0.30;0.30;;;5.50;99.90;;;;;;5022033;28;20060;-73
2024/03/17 03:28:33;;;;;;;0.20;0.20;;;5.50;99.90;;;;;;5024994;28;20047;-73
2024/03/17 03:30:59;;;;;;;0.28;0.20;;;5.50;99.90;;;;;;5031368;28;20032;-73
2024/03/17 03:33:25;;;;;;;1.23;0.40;;;5.60;99.90;;;;;;5030702;28;20100;-73
2024/03/17 03:35:50;;;;;;;0.20;0.20;;;5.60;99.90;;;;;;5013733;28;20060;-73
2024/03/17 03:38:18;;;;;;;0.20;0.17;;;5.60;99.90;;;;;;5013928;28;20026;-73
2024/03/17 03:40:44;;;;;;;0.10;0.10;;;5.60;99.90;;;;;;5031354;28;20032;-72
2024/03/17 03:43:10;;;;;;;0.25;0.25;;;5.60;99.90;;;;;;5030714;28;20037;-74
2024/03/17 03:45:36;;;;;;;0.40;0.20;;;5.60;99.90;;;;;;5031198;28;20026;-72
2024/03/17 03:48:03;;;;;;;0.47;0.32;;;5.60;99.90;;;;;;5031427;28;20048;-73
2024/03/17 03:50:29;;;;;;;0.52;0.28;;;5.60;99.90;;;;;;5031243;28;20028;-73
2024/03/17 03:52:55;;;;;;;2.17;0.38;;;5.60;99.90;;;;;;5012991;28;20034;-73
2024/03/17 03:55:21;;;;;;;0.35;0.35;;;5.50;99.90;;;;;;5031372;28;20388;-73
2024/03/17 03:57:47;;;;;;;1.02;0.60;;;5.50;99.90;;;;;;5013521;28;20380;-73
2024/03/17 04:00:21;;;;;;;0.28;0.28;;;5.50;99.90;;;;;;5031173;28;20032;-73
2024/03/17 04:02:50;;;;;;;0.20;0.20;;;5.50;99.90;;;;;;5030706;28;20026;-73
2024/03/17 04:05:16;;;;;;;0.10;0.10;;;5.50;99.90;;;;;;5013576;28;20503;-72
2024/03/17 04:07:43;;;;;;;0.10;0.10;;;5.60;99.90;;;;;;5013310;28;20063;-73
2024/03/17 04:10:09;;;;;;;0.20;0.20;;;5.60;99.90;;;;;;5013360;28;20028;-73
2024/03/17 04:12:35;;;;;;;0.40;0.40;;;5.70;99.90;;;;;;5030412;28;20364;-73
2024/03/17 04:15:01;;;;;;;1.25;0.98;;;5.70;99.90;;;;;;5031168;28;20096;-73
2024/03/17 04:17:28;;;;;;;1.70;1.05;;;5.70;99.90;;;;;;5031091;28;20112;-73
2024/03/17 04:19:54;;;;;;;0.90;0.70;;;5.80;99.90;;;;;;5031027;28;20040;-73
2024/03/17 04:22:21;;;;;;;1.48;0.68;;;5.80;99.90;;;;;;5012753;28;20030;-73
2024/03/17 04:24:53;;;;;;;1.20;0.43;;;5.70;99.90;;;;;;5031138;28;20056;-73
2024/03/17 04:27:25;;;;;;;1.48;0.80;;;5.70;99.90;;;;;;5031010;28;20497;-73
2024/03/17 04:29:53;;;;;;;1.15;0.73;;;5.60;99.90;;;;;;5031019;28;20026;-72
2024/03/17 04:32:19;;;;;;;1.67;0.73;;;5.50;99.90;;;;;;5012727;28;20026;-73
2024/03/17 04:34:45;;;;;;;1.40;0.90;;;5.50;99.90;;;;;;5030818;28;20096;-73
2024/03/17 04:37:13;;;;;;;5.30;1.27;;;5.40;99.90;;;;;;5030894;28;20451;-73
2024/03/17 04:39:44;;;;;;;3.03;0.82;;;5.40;99.90;;;;;;5030619;28;20029;-73
2024/03/17 04:42:10;;;;;;;1.20;0.93;;;5.40;99.90;;;;;;5012606;28;20033;-73
2024/03/17 04:44:36;;;;;;;1.20;0.60;;;5.30;99.90;;;;;;5030948;28;20033;-72
2024/03/17 04:47:06;;;;;;;0.47;0.35;;;5.30;99.90;;;;;;5034594;28;20029;-72
2024/03/17 04:49:34;;;;;;;1.38;1.02;;;5.40;99.90;;;;;;5035392;28;20056;-73
2024/03/17 04:52:00;;;;;;;0.60;0.60;;;5.40;99.90;;;;;;5034156;28;20440;-73
2024/03/17 04:54:26;;;;;;;1.33;0.98;;;5.30;99.90;;;;;;5035134;28;20021;-73
2024/03/17 04:56:51;;;;;;;1.63;0.80;;;5.30;99.90;;;;;;5034900;28;20112;-72
2024/03/17 04:59:17;;;;;;;1.13;1.00;;;5.30;99.90;;;;;;5016749;28;20499;-73
2024/03/17 05:01:42;;;;;;;1.05;1.05;;;5.20;99.90;;;;;;5033579;28;20029;-73
2024/03/17 05:04:08;;;;;;;1.20;0.98;;;5.20;99.90;;;;;;5016270;28;20034;-73
2024/03/17 05:06:34;;;;;;;1.35;1.25;;;5.30;99.90;;;;;;5033965;28;20029;-73
2024/03/17 05:08:59;;;;;;;1.77;1.00;;;5.20;99.90;;;;;;5033892;28;20466;-73
2024/03/17 05:11:25;;;;;;;1.73;1.52;;;5.20;99.90;;;;;;5034067;28;20071;-72
2024/03/17 05:13:51;;;;;;;1.17;1.13;;;5.20;99.90;;;;;;5033433;28;20053;-73
2024/03/17 05:16:16;;;;;;;1.25;0.90;;;5.20;99.90;;;;;;5016230;28;20079;-73
2024/03/17 05:18:42;;;;;;;1.02;0.95;;;5.20;99.90;;;;;;5033984;28;20060;-73
2024/03/17 05:21:09;;;;;;;0.85;0.85;;;5.20;99.90;;;;;;5016041;28;20475;-73
2024/03/17 05:23:36;;;;;;;1.10;1.00;;;5.20;99.90;;;;;;5033136;28;20032;-73
2024/03/17 05:26:06;;;;;;;3.17;0.68;;;5.20;99.90;;;;;;5033821;28;20547;-73
2024/03/17 05:28:32;;;;;;;1.17;1.05;;;5.20;99.90;;;;;;5015859;28;20028;-73
2024/03/17 05:30:58;;;;;;;1.10;0.82;;;5.20;99.90;;;;;;5033608;28;20021;-73
2024/03/17 05:33:25;;;;;;;0.85;0.75;;;5.20;99.90;;;;;;5032420;28;20032;-73
2024/03/17 05:35:59;;;;;;;2.13;1.05;;;5.40;99.90;;;;;;5015635;28;20060;-73
2024/03/17 05:38:26;;;;;;;1.20;0.82;;;5.40;99.90;;;;;;5015601;28;20033;-73
2024/03/17 05:40:55;;;;;;;1.20;0.95;;;5.40;99.90;;;;;;5033413;28;20026;-73
2024/03/17 05:43:23;;;;;;;1.08;0.93;;;5.40;99.90;;;;;;5014996;28;20037;-73
2024/03/17 05:45:50;;;;;;;0.57;0.57;;;5.40;99.90;;;;;;5033483;28;20030;-73
2024/03/17 05:48:16;;;;;;;0.80;0.68;;;5.40;99.90;;;;;;5033623;28;20022;-72
2024/03/17 05:50:41;;;;;;;1.10;0.85;;;5.50;99.90;;;;;;5033385;28;20036;-73
2024/03/17 05:53:07;;;;;;;3.25;0.93;;;5.50;99.90;;;;;;5032571;28;20491;-73
2024/03/17 05:55:36;;;;;;;0.68;0.65;;;5.60;99.90;;;;;;5033192;28;20115;-73
2024/03/17 05:58:02;;;;;;;3.10;0.80;;;5.60;99.90;;;;;;5033140;28;20667;-73
2024/03/17 06:00:27;;;;;;;2.35;1.48;;;5.70;99.90;;;;;;5032972;28;20033;-73
2024/03/17 06:02:53;;;;;;;5.00;2.10;;;5.80;99.90;;;;;;5014485;28;20064;-73
2024/03/17 06:05:19;;;;;;;1.10;1.10;;;5.90;99.90;;;;;;5015458;28;20021;-73
2024/03/17 06:07:44;;;;;;;1.73;1.60;;;6.00;99.90;;;;;;5033077;28;20033;-73
2024/03/17 06:10:10;;;;;;;2.22;1.73;;;6.80;99.90;;;;;;5033976;28;20029;-72
2024/03/17 06:12:35;;;;;;;2.13;1.10;;;6.60;99.90;;;;;;5029533;28;20133;-73
2024/03/17 06:15:02;;;;;;;4.10;2.88;;;6.60;99.90;;;;;;5022632;28;20029;-74
2024/03/17 06:17:28;;;;;;;1.98;1.75;;;6.60;99.90;;;;;;5011615;28;20026;-73
2024/03/17 06:19:54;;;;;;;0.80;0.77;;;6.60;99.90;;;;;;5021005;28;20110;-74
2024/03/17 06:22:19;;;;;;;4.43;2.15;;;6.70;99.90;;;;;;4994730;28;20704;-74
2024/03/17 06:24:45;;;;;;;2.75;1.98;;;6.80;99.90;;;;;;4995245;28;20032;-74
2024/03/17 06:27:11;;;;;;;3.05;2.28;;;6.90;99.90;;;;;;5023099;28;20061;-74
2024/03/17 06:29:36;;;;;;;3.20;2.05;;;7.10;99.90;;;;;;5008402;28;20023;-73
2024/03/17 06:32:02;;;;;;;2.05;1.67;;;7.20;99.90;;;;;;5031682;28;20052;-74
2024/03/17 06:34:27;;;;;;;1.00;0.88;;;7.40;99.90;;;;;;5032538;28;20387;-74
2024/03/17 06:36:54;;;;;;;1.45;1.05;;;7.50;99.90;;;;;;5011423;28;20033;-74
2024/03/17 06:39:21;;;;;;;1.02;0.60;;;7.60;99.90;;;;;;5023475;28;20025;-74
2024/03/17 06:41:47;;;;;;;1.02;1.02;;;7.70;99.90;;;;;;5031803;28;20033;-74
2024/03/17 06:44:12;;;;;;;0.90;0.90;;;7.90;99.90;;;;;;5032095;28;20034;-73
2024/03/17 06:46:38;;;;;;;3.15;1.23;;;8.00;99.90;;;;;;5032036;28;20036;-74
2024/03/17 06:49:03;;;;;;;1.35;1.13;;;8.20;99.90;;;;;;5014082;28;20028;-74
2024/03/17 06:51:29;;;;;;;1.05;0.85;;;8.30;99.90;;;;;;5031970;28;20025;-72
2024/03/17 06:53:55;;;;;;;1.00;0.90;;;8.50;99.90;;;;;;5031079;28;20034;-75
2024/03/17 06:56:20;;;;;;;3.10;1.35;;;8.50;99.90;;;;;;5023765;28;20095;-74
2024/03/17 06:58:46;;;;;;;1.13;1.08;;;8.70;99.90;;;;;;5023665;28;20064;-74
2024/03/17 07:01:12;;;;;;;3.50;2.70;;;8.80;99.90;;;;;;5031746;28;20040;-74
2024/03/17 07:03:38;;;;;;;4.13;3.17;;;8.90;99.90;;;;;;5030795;28;20034;-74
2024/03/17 07:06:05;;;;;;;1.80;1.50;;;9.00;99.90;;;;;;5023565;28;20537;-74
2024/03/17 07:08:31;;;;;;;1.60;1.50;;;9.10;99.90;;;;;;5031517;28;20490;-73
2024/03/17 07:10:57;;;;;;;3.78;3.35;;;9.10;99.90;;;;;;5014108;28;20068;-74
2024/03/17 07:13:23;;;;;;;2.15;1.92;;;9.10;99.90;;;;;;5022244;28;20032;-74
2024/03/17 07:15:49;;;;;;;1.35;1.25;;;9.20;99.90;;;;;;5005026;28;20030;-73
2024/03/17 07:18:15;;;;;;;3.17;1.02;;;9.30;99.90;;;;;;5030325;28;20063;-74
2024/03/17 07:20:40;;;;;;;3.70;1.70;;;9.30;99.90;;;;;;5026446;28;20108;-75
2024/03/17 07:23:06;;;;;;;6.80;4.72;;;9.40;99.90;;;;;;5004129;28;20116;-75
2024/03/17 07:25:32;;;;;;;4.20;2.30;;;9.50;99.90;;;;;;5023159;28;20496;-75
2024/03/17 07:27:58;;;;;;;2.35;1.75;;;9.70;99.90;;;;;;5026528;28;20037;-74
2024/03/17 07:30:23;;;;;;;3.63;1.48;;;9.80;99.90;;;;;;5021879;28;20026;-74
2024/03/17 07:32:49;;;;;;;2.92;2.22;;;9.80;99.90;;;;;;5030664;28;20047;-73
2024/03/17 07:35:14;;;;;;;2.70;2.50;;;9.90;99.90;;;;;;5013906;28;20079;-74
2024/03/17 07:37:40;;;;;;;2.55;2.17;;;10.00;99.90;;;;;;5031507;28;20096;-74
2024/03/17 07:40:06;;;;;;;2.60;1.35;;;10.10;99.90;;;;;;5031389;28;20097;-74
2024/03/17 07:42:33;;;;;;;1.35;1.25;;;10.10;99.90;;;;;;5030957;28;20033;-74
2024/03/17 07:44:58;;;;;;;2.00;1.80;;;10.20;99.90;;;;;;5013486;28;20021;-75
2024/03/17 07:47:25;;;;;;;2.75;2.55;;;10.30;99.90;;;;;;5013757;28;20116;-75
2024/03/17 07:49:51;;;;;;;3.95;2.35;;;10.40;99.90;;;;;;5013678;28;20033;-75
2024/03/17 07:52:16;;;;;;;2.70;2.30;;;10.40;99.90;;;;;;5013130;28;20021;-75
2024/03/17 07:54:42;;;;;;;3.33;2.85;;;10.50;99.90;;;;;;5013613;28;20017;-75
2024/03/17 07:57:09;;;;;;;2.13;1.90;;;10.50;99.90;;;;;;5031382;28;20091;-75
2024/03/17 07:59:34;;;;;;;1.52;1.20;;;10.50;99.90;;;;;;5026655;28;20487;-75
2024/03/17 08:02:00;;;;;;;1.27;0.90;;;10.50;99.90;;;;;;5026374;28;20044;-75
2024/03/17 08:04:26;;;;;;;2.17;1.77;;;10.50;99.90;;;;;;5054603;23;20071;-74
2024/03/17 08:06:52;;;;;;;8.25;6.13;;;10.40;99.90;;;;;;5024211;28;20026;-73
2024/03/17 08:09:18;;;;;;;6.80;4.38;;;10.50;99.90;;;;;;5030159;28;20439;-74
2024/03/17 08:11:46;;;;;;;1.63;1.30;;;10.60;99.90;;;;;;5030934;28;20017;-72
2024/03/17 08:14:14;;;;;;;1.98;1.48;;;10.60;99.90;;;;;;5031281;28;20013;-73
2024/03/17 08:16:40;;;;;;;1.15;1.05;;;10.70;99.90;;;;;;5031351;28;20025;-73
2024/03/17 08:19:06;;;;;;;2.08;1.73;;;10.70;99.90;;;;;;5036279;28;20484;-73
2024/03/17 08:21:32;;;;;;;2.53;2.30;;;10.80;99.90;;;;;;5041477;28;20025;-74
2024/03/17 08:23:58;;;;;;;1.05;1.05;;;10.90;99.90;;;;;;5035580;28;20078;-74
2024/03/17 08:26:23;;;;;;;1.48;1.30;;;10.90;99.90;;;;;;5022249;28;20045;-74
2024/03/17 08:28:49;;;;;;;9.73;4.57;;;11.60;99.90;;;;;;5032053;28;20022;-74
2024/03/17 08:31:15;;;;;;;6.50;4.40;;;11.50;99.90;;;;;;5007687;28;20108;-75
2024/03/17 08:33:41;;;;;;;4.22;2.70;;;11.50;99.90;;;;;;5033316;28;20480;-75
2024/03/17 08:36:08;;;;;;;5.68;3.22;;;11.50;99.90;;;;;;5034676;28;20444;-75
2024/03/17 08:38:35;;;;;;;3.55;3.25;;;11.40;99.90;;;;;;5017081;28;20033;-76
2024/03/17 08:41:05;;;;;;;3.88;2.72;;;11.50;99.90;;;;;;5016963;28;20468;-75
2024/03/17 08:43:32;;;;;;;13.52;7.43;;;11.60;99.90;;;;;;5032543;28;20026;-76
2024/03/17 08:46:08;;;;;;;6.65;4.22;;;11.60;99.90;;;;;;5017000;28;20022;-77
2024/03/17 08:48:38;;;;;;;5.50;3.45;;;11.70;99.90;;;;;;5016757;28;20033;-75
2024/03/17 08:51:06;;;;;;;4.47;2.95;;;11.70;99.90;;;;;;5033226;28;20108;-74
2024/03/17 08:53:32;;;;;;;3.65;3.35;;;11.90;99.90;;;;;;5033865;28;20540;-76
2024/03/17 08:55:59;;;;;;;3.10;2.88;;;11.90;99.90;;;;;;5033054;28;20052;-75
2024/03/17 08:58:25;;;;;;;4.93;4.00;;;12.00;99.90;;;;;;5034321;28;20121;-75
2024/03/17 09:00:51;;;;;;;2.60;2.40;;;12.00;99.90;;;;;;5016513;28;20025;-75
2024/03/17 09:03:18;;;;;;;4.05;2.70;;;12.10;99.90;;;;;;5015701;28;20041;-75
2024/03/17 09:05:45;;;;;;;4.75;3.40;;;12.20;99.90;;;;;;5016605;28;20060;-75
2024/03/17 09:08:22;;;;;;;8.35;4.93;;;12.20;99.90;;;;;;5017133;28;20021;-76
2024/03/17 09:10:52;;;;;;;4.35;3.38;;;12.30;99.90;;;;;;5045859;28;20056;-78
2024/03/17 09:13:20;;;;;;;8.35;6.35;;;12.40;99.90;;;;;;5015877;28;20052;-76
2024/03/17 09:15:52;;;;;;;2.63;1.98;;;12.40;99.90;;;;;;5033892;28;20068;-76
2024/03/17 09:18:18;;;;;;;3.92;2.72;;;12.50;99.90;;;;;;5034208;28;20439;-76
2024/03/17 09:20:43;;;;;;;2.92;1.80;;;12.60;99.90;;;;;;5015984;28;20117;-76
2024/03/17 09:23:09;;;;;;;0.80;0.80;;;12.70;99.90;;;;;;5015311;28;20036;-76
2024/03/17 09:25:35;;;;;;;1.15;1.05;;;12.50;99.90;;;;;;5033980;28;20068;-75
2024/03/17 09:28:01;;;;;;;3.67;1.30;;;12.40;99.90;;;;;;5033941;28;20026;-76
2024/03/17 09:30:27;;;;;;;2.58;2.35;;;12.40;99.90;;;;;;5033445;28;20021;-77
2024/03/17 09:32:53;;;;;;;3.25;2.20;;;12.50;99.90;;;;;;5032786;28;20017;-75
2024/03/17 09:35:18;;;;;;;2.75;2.28;;;12.50;99.90;;;;;;5032355;28;20044;-78
2024/03/17 09:37:44;;;;;;;2.08;1.75;;;12.60;99.90;;;;;;5022487;28;20503;-78
2024/03/17 09:40:16;;;;;;;4.15;2.60;;;12.70;99.90;;;;;;5040235;28;20021;-79
2024/03/17 09:42:45;;;;;;;3.80;2.40;;;12.70;99.90;;;;;;5049230;28;20020;-82
2024/03/17 09:45:13;;;;;;;2.35;1.52;;;12.80;99.90;;;;;;5054209;28;20047;-83
2024/03/17 09:47:40;;;;;;;7.65;2.38;;;12.90;99.90;;;;;;5051894;28;20676;-83
2024/03/17 09:50:13;;;;;;;4.75;1.98;;;12.90;99.90;;;;;;5036592;28;20021;-83
2024/03/17 09:52:39;;;;;;;2.03;1.77;;;13.10;99.90;;;;;;5018347;28;20036;-83
2024/03/17 09:55:15;;;;;;;2.67;1.92;;;13.20;99.90;;;;;;5055404;28;20017;-82
2024/03/17 09:57:42;;;;;;;4.13;2.80;;;13.10;99.90;;;;;;5019763;28;20030;-80
2024/03/17 10:00:13;;;;;;;5.82;3.05;;;13.30;99.90;;;;;;5020578;28;20071;-79
2024/03/17 10:02:47;;;;;;;8.95;4.78;;;13.40;99.90;;;;;;5036461;28;20419;-80
2024/03/17 10:05:23;;;;;;;9.43;3.67;;;13.60;99.90;;;;;;5037071;28;20033;-79
2024/03/17 10:07:50;;;;;;;15.35;4.13;;;13.70;99.90;;;;;;5020915;28;20590;-77
2024/03/17 10:10:17;;;;;;;5.88;3.67;;;13.60;99.40;;;;;;5030421;28;20064;-78
2024/03/17 10:12:44;;;;;;;12.75;6.18;;;13.50;98.90;;;;;;5019544;28;20140;-80
2024/03/17 10:15:12;;;;;;;5.35;3.30;;;13.50;99.90;;;;;;5013316;28;20026;-80
2024/03/17 10:17:38;;;;;;;1.92;1.73;;;13.60;99.90;;;;;;5035068;28;20022;-79
2024/03/17 10:20:18;;;;;;;2.13;1.92;;;13.70;99.90;;;;;;5043053;28;20052;-80
2024/03/17 10:22:59;;;;;;;2.88;1.67;;;13.80;99.10;;;;;;5032437;28;20120;-80
2024/03/17 10:25:30;;;;;;;2.83;1.38;;;13.90;98.50;;;;;;5021886;28;20102;-80
2024/03/17 10:27:56;;;;;;;1.25;1.25;;;13.90;96.90;;;;;;5022301;28;20439;-78
2024/03/17 10:30:24;;;;;;;1.25;1.17;;;14.00;95.60;;;;;;5035338;28;20564;-79
2024/03/17 10:32:58;;;;;;;2.08;1.67;;;14.00;96.10;;;;;;5037400;28;20029;-79
2024/03/17 10:35:41;;;;;;;1.77;1.63;;;14.10;97.50;;;;;;5042612;28;20013;-80
2024/03/17 10:38:08;;;;;;;2.53;1.52;;;14.30;97.30;;;;;;5036947;28;20025;-78
2024/03/17 10:40:36;;;;;;;1.17;1.00;;;14.20;96.10;;;;;;5036663;28;20499;-79
2024/03/17 10:43:02;;;;;;;0.70;0.65;;;14.30;95.10;;;;;;5026110;28;20014;-80
2024/03/17 10:45:35;;;;;;;0.95;0.90;;;14.40;95.00;;;;;;5004112;28;20398;-77
2024/03/17 10:48:03;;;;;;;2.20;0.90;;;14.40;95.20;;;;;;5030494;28;20095;-77
2024/03/17 10:50:31;;;;;;;1.00;0.93;;;14.40;94.90;;;;;;5013226;28;20018;-80
2024/03/17 10:53:03;;;;;;;1.23;1.13;;;14.40;95.80;;;;;;5038000;28;20024;-79
2024/03/17 10:55:40;;;;;;;2.22;1.15;;;14.50;96.00;;;;;;5037095;28;20030;-81
2024/03/17 10:58:18;;;;;;;1.02;0.90;;;14.60;95.40;;;;;;5040754;28;20043;-81
2024/03/17 11:00:46;;;;;;;1.90;1.00;;;14.40;94.90;;;;;;5040276;28;20026;-82
2024/03/17 11:03:13;;;;;;;5.50;2.45;;;14.40;94.80;;;;;;5030213;28;20116;-81
2024/03/17 11:05:39;;;;;;;5.55;2.70;;;14.30;95.10;;;;;;5027686;28;20036;-81
2024/03/17 11:08:05;;;;;;;2.85;1.55;;;14.30;94.50;;;;;;5020490;28;20022;-80
2024/03/17 11:10:34;;;;;;;2.33;1.95;;;14.40;93.80;;;;;;5017325;28;20587;-82
2024/03/17 11:13:02;;;;;;;3.10;2.25;;;14.40;94.20;;;;;;4998856;28;20088;-81
2024/03/17 11:15:38;;;;;;;2.50;1.20;;;14.40;96.00;;;;;;4999553;28;20026;-83
2024/03/17 11:18:10;;;;;;;1.23;1.15;;;14.50;96.40;;;;;;4999809;28;20113;-81
2024/03/17 11:20:37;;;;;;;1.48;1.17;;;14.60;96.10;;;;;;5024065;28;20025;-82
2024/03/17 11:23:03;;;;;;;4.13;0.60;;;14.40;95.50;;;;;;5037956;28;20025;-81
2024/03/17 11:25:33;;;;;;;2.50;0.95;;;14.40;95.20;;;;;;5014109;28;20061;-79
2024/03/17 11:28:06;;;;;;;1.75;1.65;;;14.40;95.20;;;;;;5015848;28;20014;-80
2024/03/17 11:30:41;;;;;;;2.38;1.58;;;14.40;95.40;;;;;;5015648;28;20053;-80
2024/03/17 11:33:35;;;;;;;1.38;1.02;;;14.40;95.30;;;;;;5031973;28;20022;-80
2024/03/17 11:36:23;;;;;;;1.60;0.82;;;14.60;95.70;;;;;;5002989;28;20408;-79
2024/03/17 11:39:16;;;;;;;1.85;1.10;;;14.70;95.30;;;;;;4997931;28;20053;-81
2024/03/17 11:41:46;;;;;;;1.00;0.90;;;14.80;95.30;;;;;;5013198;28;20033;-81
2024/03/17 11:44:27;;;;;;;1.73;1.17;;;14.90;94.20;;;;;;5015032;28;20377;-80
2024/03/17 11:47:01;;;;;;;2.17;2.08;;;14.90;95.70;;;;;;5014810;28;20026;-80
2024/03/17 11:49:29;;;;;;;1.98;1.33;;;15.00;95.80;;;;;;5014333;28;20026;-80
2024/03/17 11:51:57;;;;;;;1.10;0.93;;;15.10;94.90;;;;;;5014520;28;20050;-80
2024/03/17 11:54:28;;;;;;;2.35;1.60;;;15.00;95.70;;;;;;4997996;28;20135;-80
2024/03/17 11:56:55;;;;;;;1.33;1.05;;;15.10;96.00;;;;;;5002030;28;20033;-80
2024/03/17 11:59:22;;;;;;;0.98;0.90;;;15.20;94.30;;;;;;5002191;28;20030;-80
2024/03/17 12:01:49;;;;;;;1.92;0.80;;;15.30;93.90;;;;;;5001304;28;20030;-79
2024/03/17 12:04:19;;;;;;;1.80;0.95;;;15.20;92.80;;;;;;5017217;28;20041;-80
2024/03/17 12:06:52;;;;;;;0.90;0.80;;;15.10;93.40;;;;;;5039951;28;20092;-80
2024/03/17 12:09:20;;;;;;;2.40;1.42;;;14.90;93.50;;;;;;5018203;28;20059;-80
2024/03/17 12:11:57;;;;;;;2.75;1.00;;;14.90;93.80;;;;;;5036869;28;20037;-80
2024/03/17 12:14:25;;;;;;;7.20;3.38;;;15.00;95.20;;;;;;5018981;28;20503;-80
2024/03/17 12:16:55;;;;;;;6.32;2.97;;;15.20;94.60;;;;;;5027844;28;20036;-80
2024/03/17 12:19:23;;;;;;;12.35;4.90;;;15.30;94.00;;;;;;5026953;28;20530;-80
2024/03/17 12:21:51;;;;;;;18.25;6.78;;;15.40;94.40;;;;;;5018154;28;20032;-80
2024/03/17 12:24:19;;;;;;;5.45;3.40;;;15.50;93.80;;;;;;5018853;28;20033;-80
2024/03/17 12:26:47;;;;;;;4.45;2.35;;;15.50;92.80;;;;;;5018433;28;20029;-79
2024/03/17 12:29:41;;;;;;;2.35;1.58;;;15.40;92.90;;;;;;5034763;28;20025;-80
2024/03/17 12:32:18;;;;;;;2.03;1.60;;;15.50;92.70;;;;;;5015426;28;20412;-79
2024/03/17 12:34:45;;;;;;;2.33;1.65;;;15.60;93.40;;;;;;5040048;28;20052;-79
2024/03/17 12:37:22;;;;;;;4.30;2.00;;;15.40;92.70;;;;;;5023515;28;20028;-80
2024/03/17 12:39:48;;;;;;;3.97;2.20;;;15.40;92.80;;;;;;5028265;28;20044;-82
2024/03/17 12:42:25;;;;;;;2.45;1.13;;;15.50;92.40;;;;;;5015113;28;20109;-78
2024/03/17 12:44:51;;;;;;;1.25;1.15;;;15.60;91.60;;;;;;5014170;28;20034;-79
2024/03/17 12:47:22;;;;;;;0.95;0.90;;;15.60;92.70;;;;;;5006848;28;20030;-80
2024/03/17 12:49:52;;;;;;;1.05;0.60;;;15.60;91.20;;;;;;5000093;28;20021;-80
2024/03/17 12:52:22;;;;;;;1.38;0.85;;;15.70;93.10;;;;;;4999105;28;20022;-79
2024/03/17 13:00:46;;;;;;;1.08;0.80;;;15.40;91.30;;;;;;5018543;28;20040;-81